createdAt,value
2019-01-04T00:00:07.185Z,0.94
2019-01-04T00:01:17.614Z,0.97
2019-01-04T00:02:27.657Z,0.97
2019-01-04T00:03:37.511Z,0.99
2019-01-04T00:04:47.341Z,1
2019-01-04T00:05:57.409Z,0.94
2019-01-04T00:07:07.476Z,0.92
2019-01-04T00:08:17.759Z,0.94
2019-01-04T00:09:27.828Z,0.94
2019-01-04T00:10:37.894Z,0.99
2019-01-04T00:11:47.690Z,0.94
2019-01-04T00:12:57.792Z,0.89
2019-01-04T00:14:09.505Z,0.92
2019-01-04T00:15:19.310Z,0.84
2019-01-04T00:16:29.383Z,0.86
2019-01-04T00:17:39.468Z,0.75
2019-01-04T00:18:50.592Z,0.84
2019-01-04T00:20:02.994Z,0.84
2019-01-04T00:21:13.064Z,0.71
2019-01-04T00:22:23.118Z,0.81
2019-01-04T00:23:33.189Z,0.67
2019-01-04T00:24:43.261Z,0.74
2019-01-04T00:25:53.341Z,0.63
2019-01-04T00:27:03.170Z,0.71
2019-01-04T00:28:13.235Z,0.67
2019-01-04T00:29:23.044Z,0.63
2019-01-04T00:30:32.868Z,0.69
2019-01-04T00:31:42.921Z,0.64
2019-01-04T00:32:52.974Z,0.6
2019-01-04T00:34:03.421Z,0.6
2019-01-04T00:35:13.485Z,0.64
2019-01-04T00:36:23.545Z,0.6
2019-01-04T00:37:33.617Z,0.6
2019-01-04T00:38:43.435Z,0.72
2019-01-04T00:39:53.508Z,0.72
2019-01-04T00:41:03.597Z,0.63
2019-01-04T00:42:13.419Z,0.75
2019-01-04T00:43:23.491Z,0.75
2019-01-04T00:44:33.557Z,0.74
2019-01-04T00:45:43.601Z,0.72
2019-01-04T00:46:53.663Z,0.76
2019-01-04T00:48:03.723Z,0.74
2019-01-04T00:49:13.829Z,0.67
2019-01-04T00:50:23.630Z,0.76
2019-01-04T00:51:33.696Z,0.75
2019-01-04T00:52:43.523Z,0.75
2019-01-04T00:53:53.601Z,0.81
2019-01-04T00:55:03.650Z,0.79
2019-01-04T00:56:13.729Z,0.67
2019-01-04T00:57:23.792Z,0.71
2019-01-04T00:58:33.859Z,0.75
2019-01-04T00:59:43.918Z,0.72
2019-01-04T01:00:53.969Z,0.69
2019-01-04T01:02:04.033Z,0.69
2019-01-04T01:03:13.837Z,0.76
2019-01-04T01:04:23.382Z,0.71
2019-01-04T01:05:33.182Z,0.75
2019-01-04T01:06:43.241Z,0.75
2019-01-04T01:07:53.351Z,0.64
2019-01-04T01:09:03.856Z,0.74
2019-01-04T01:10:13.918Z,0.63
2019-01-04T01:11:24.001Z,0.71
2019-01-04T01:12:34.109Z,0.71
2019-01-04T01:13:44.184Z,0.69
2019-01-04T01:14:53.989Z,0.72
2019-01-04T01:16:04.050Z,0.72
2019-01-04T01:17:13.858Z,0.64
2019-01-04T01:18:23.715Z,0.74
2019-01-04T01:19:32.986Z,0.61
2019-01-04T01:20:43.062Z,0.67
2019-01-04T01:21:53.105Z,0.78
2019-01-04T01:23:03.646Z,0.82
2019-01-04T01:24:13.730Z,0.76
2019-01-04T01:25:23.793Z,0.84
2019-01-04T01:26:33.875Z,0.82
2019-01-04T01:27:43.931Z,0.92
2019-01-04T01:28:53.468Z,0.86
2019-01-04T01:30:03.539Z,0.93
2019-01-04T01:31:13.334Z,0.89
2019-01-04T01:32:23.391Z,0.84
2019-01-04T01:33:33.437Z,0.85
2019-01-04T01:34:43.547Z,0.93
2019-01-04T01:35:53.397Z,0.84
2019-01-04T01:37:03.751Z,0.86
2019-01-04T01:38:13.789Z,0.82
2019-01-04T01:39:23.601Z,0.84
2019-01-04T01:40:33.420Z,0.84
2019-01-04T01:41:43.528Z,0.82
2019-01-04T01:42:53.586Z,0.71
2019-01-04T01:44:03.803Z,0.78
2019-01-04T01:45:13.591Z,0.69
2019-01-04T01:46:23.391Z,0.72
2019-01-04T01:47:33.454Z,0.72
2019-01-04T01:48:43.275Z,0.72
2019-01-04T01:49:53.321Z,0.74
2019-01-04T01:51:03.126Z,0.74
2019-01-04T01:52:13.171Z,0.66
2019-01-04T01:53:23.247Z,0.74
2019-01-04T01:54:33.038Z,0.81
2019-01-04T01:55:43.085Z,0.81
2019-01-04T01:56:54.193Z,0.82
2019-01-04T01:58:03.990Z,0.78
2019-01-04T01:59:13.787Z,0.85
2019-01-04T02:00:23.852Z,0.89
2019-01-04T02:01:33.434Z,0.86
2019-01-04T02:02:43.497Z,0.9
2019-01-04T02:03:53.575Z,0.86
2019-01-04T02:05:03.619Z,0.97
2019-01-04T02:06:13.423Z,0.92
2019-01-04T02:07:23.521Z,0.94
2019-01-04T02:08:33.605Z,0.89
2019-01-04T02:09:43.655Z,0.92
2019-01-04T02:10:53.715Z,0.94
2019-01-04T02:12:03.772Z,0.9
2019-01-04T02:13:13.871Z,0.84
2019-01-04T02:14:23.964Z,0.79
2019-01-04T02:15:34.078Z,0.75
2019-01-04T02:16:44.112Z,0.79
2019-01-04T02:17:54.167Z,0.71
2019-01-04T02:19:04.566Z,0.72
2019-01-04T02:20:14.619Z,0.67
2019-01-04T02:21:24.430Z,0.75
2019-01-04T02:22:34.508Z,0.69
2019-01-04T02:23:44.570Z,0.64
2019-01-04T02:24:54.610Z,0.57
2019-01-04T02:26:04.674Z,0.56
2019-01-04T02:27:14.736Z,0.61
2019-01-04T02:28:24.828Z,0.58
2019-01-04T02:29:34.877Z,0.66
2019-01-04T02:30:44.943Z,0.6
2019-01-04T02:31:54.783Z,0.53
2019-01-04T02:33:04.838Z,0.63
2019-01-04T02:34:14.892Z,0.64
2019-01-04T02:35:24.940Z,0.52
2019-01-04T02:36:35.019Z,0.5
2019-01-04T02:37:44.837Z,0.53
2019-01-04T02:38:54.633Z,0.52
2019-01-04T02:40:04.689Z,0.47
2019-01-04T02:41:14.785Z,0.42
2019-01-04T02:42:24.860Z,0.45
2019-01-04T02:43:34.942Z,0.45
2019-01-04T02:44:45.030Z,0.47
2019-01-04T02:45:55.069Z,0.52
2019-01-04T02:47:05.196Z,0.44
2019-01-04T02:48:15.278Z,0.45
2019-01-04T02:49:25.069Z,0.48
2019-01-04T02:50:35.173Z,0.47
2019-01-04T02:51:45.291Z,0.41
2019-01-04T02:52:55.410Z,0.38
2019-01-04T02:54:06.643Z,0.53
2019-01-04T02:55:16.681Z,0.35
2019-01-04T02:56:26.761Z,0.44
2019-01-04T02:57:36.897Z,0.38
2019-01-04T02:58:46.957Z,0.42
2019-01-04T02:59:56.760Z,0.39
2019-01-04T03:01:06.975Z,0.38
2019-01-04T03:02:16.789Z,0.37
2019-01-04T03:34:56.173Z,-1.09
2019-01-04T03:36:07.782Z,-1.09
2019-01-04T03:37:17.833Z,-1.03
2019-01-04T03:38:27.633Z,-1.01
2019-01-04T03:39:37.468Z,-0.95
2019-01-04T03:40:47.551Z,-0.85
2019-01-04T03:41:57.603Z,-0.79
2019-01-04T03:43:07.650Z,-0.56
2019-01-04T03:44:17.717Z,-0.56
2019-01-04T03:45:27.565Z,-0.51
2019-01-04T03:46:37.691Z,-0.41
2019-01-04T03:47:47.760Z,-0.25
2019-01-04T03:48:57.830Z,-0.16
2019-01-04T03:50:07.893Z,-0.2
2019-01-04T03:51:17.696Z,-0.05
2019-01-04T03:52:27.548Z,0.05
2019-01-04T03:53:37.630Z,0.13
2019-01-04T03:54:47.691Z,0.19
2019-01-04T03:55:57.763Z,0.2
2019-01-04T03:57:09.562Z,0.21
2019-01-04T03:58:19.386Z,0.26
2019-01-04T03:59:29.442Z,0.35
2019-01-04T04:00:39.248Z,0.32
2019-01-04T04:01:48.791Z,0.34
2019-01-04T04:02:58.616Z,0.42
2019-01-04T04:04:08.675Z,0.45
2019-01-04T04:05:18.742Z,0.44
2019-01-04T04:06:28.538Z,0.45
2019-01-04T04:07:38.607Z,0.5
2019-01-04T04:08:48.694Z,0.5
2019-01-04T04:09:58.557Z,0.47
2019-01-04T04:11:08.631Z,0.48
2019-01-04T04:12:18.674Z,0.44
2019-01-04T04:13:28.734Z,0.48
2019-01-04T04:14:38.795Z,0.44
2019-01-04T04:15:48.848Z,0.45
2019-01-04T04:16:58.928Z,0.53
2019-01-04T04:18:09.135Z,0.6
2019-01-04T04:19:19.196Z,0.63
2019-01-04T04:20:29.269Z,0.61
2019-01-04T04:21:39.327Z,0.64
2019-01-04T04:22:49.383Z,0.66
2019-01-04T04:23:59.442Z,0.71
2019-01-04T04:25:09.501Z,0.69
2019-01-04T04:26:19.304Z,0.72
2019-01-04T04:27:29.379Z,0.69
2019-01-04T04:28:39.434Z,0.69
2019-01-04T04:29:49.487Z,0.71
2019-01-04T04:30:59.037Z,0.67
2019-01-04T04:32:08.861Z,0.74
2019-01-04T04:33:18.667Z,0.75
2019-01-04T04:34:28.742Z,0.84
2019-01-04T04:35:38.560Z,0.82
2019-01-04T04:36:48.614Z,0.82
2019-01-04T04:37:58.416Z,0.82
2019-01-04T04:39:09.187Z,0.81
2019-01-04T04:40:19.248Z,0.79
2019-01-04T04:41:29.319Z,0.9
2019-01-04T04:42:38.865Z,0.94
2019-01-04T04:43:48.921Z,0.94
2019-01-04T04:44:58.961Z,0.96
2019-01-04T04:46:09.036Z,1
2019-01-04T04:47:18.858Z,1.08
2019-01-04T04:48:28.925Z,1.07
2019-01-04T04:49:39.018Z,1.07
2019-01-04T04:50:49.083Z,1.04
2019-01-04T04:51:59.148Z,1.04
2019-01-04T04:53:09.188Z,0.99
2019-01-04T04:54:19.269Z,0.99
2019-01-04T04:55:29.324Z,0.9
2019-01-04T04:56:39.389Z,0.85
2019-01-04T04:57:49.476Z,0.86
2019-01-04T04:58:59.284Z,0.82
2019-01-04T05:00:09.768Z,0.89
2019-01-04T05:01:20.223Z,0.82
2019-01-04T05:02:30.082Z,0.82
2019-01-04T05:03:40.119Z,0.78
2019-01-04T05:04:50.188Z,0.75
2019-01-04T05:05:59.997Z,0.79
2019-01-04T05:07:09.833Z,0.76
2019-01-04T05:08:19.654Z,0.74
2019-01-04T05:09:29.467Z,0.79
2019-01-04T05:10:39.538Z,0.66
2019-01-04T05:11:49.335Z,0.67
2019-01-04T05:12:59.406Z,0.69
2019-01-04T05:14:09.227Z,0.67
2019-01-04T05:15:19.308Z,0.63
2019-01-04T05:16:29.373Z,0.71
2019-01-04T05:17:39.501Z,0.67
2019-01-04T05:18:49.584Z,0.61
2019-01-04T05:19:59.658Z,0.63
2019-01-04T05:21:09.714Z,0.6
2019-01-04T05:22:19.791Z,0.63
2019-01-04T05:23:29.852Z,0.6
2019-01-04T05:24:39.926Z,0.6
2019-01-04T05:25:50.006Z,0.63
2019-01-04T05:27:00.066Z,0.61
2019-01-04T05:28:09.865Z,0.56
2019-01-04T05:29:19.690Z,0.57
2019-01-04T05:30:29.546Z,0.6
2019-01-04T05:31:39.608Z,0.6
2019-01-04T05:32:49.676Z,0.61
2019-01-04T05:33:59.505Z,0.63
2019-01-04T05:35:09.562Z,0.63
2019-01-04T05:36:19.632Z,0.64
2019-01-04T05:37:29.429Z,0.64
2019-01-04T05:38:39.504Z,0.61
2019-01-04T05:39:49.642Z,0.61
2019-01-04T05:40:59.700Z,0.61
2019-01-04T05:42:09.767Z,0.63
2019-01-04T05:43:19.847Z,0.61
2019-01-04T05:44:29.928Z,0.52
2019-01-04T05:45:39.985Z,0.56
2019-01-04T05:46:50.058Z,0.56
2019-01-04T05:48:00.119Z,0.52
2019-01-04T05:49:10.260Z,0.57
2019-01-04T05:50:20.069Z,0.56
2019-01-04T05:51:31.095Z,0.56
2019-01-04T05:52:41.174Z,0.48
2019-01-04T05:53:50.712Z,0.57
2019-01-04T05:55:00.503Z,0.58
2019-01-04T05:56:10.555Z,0.63
2019-01-04T05:57:20.617Z,0.61
2019-01-04T05:58:30.409Z,0.53
2019-01-04T05:59:40.224Z,0.6
2019-01-04T06:00:50.286Z,0.63
2019-01-04T06:02:00.353Z,0.61
2019-01-04T06:03:10.455Z,0.63
2019-01-04T06:04:20.545Z,0.53
2019-01-04T06:05:30.601Z,0.6
2019-01-04T06:06:40.673Z,0.5
2019-01-04T06:07:50.470Z,0.58
2019-01-04T06:09:00.539Z,0.56
2019-01-04T06:10:10.580Z,0.52
2019-01-04T06:11:20.643Z,0.48
2019-01-04T06:12:30.698Z,0.52
2019-01-04T06:13:40.758Z,0.45
2019-01-04T06:14:50.813Z,0.5
2019-01-04T06:16:00.620Z,0.47
2019-01-04T06:17:10.665Z,0.56
2019-01-04T06:18:20.720Z,0.39
2019-01-04T06:19:30.516Z,0.47
2019-01-04T06:20:40.572Z,0.45
2019-01-04T06:21:50.610Z,0.42
2019-01-04T06:23:02.262Z,0.52
2019-01-04T06:24:12.381Z,0.38
2019-01-04T06:25:22.439Z,0.41
2019-01-04T06:26:32.499Z,0.39
2019-01-04T06:27:42.570Z,0.38
2019-01-04T06:28:52.619Z,0.39
2019-01-04T06:30:02.758Z,0.42
2019-01-04T06:31:12.814Z,0.34
2019-01-04T06:32:22.625Z,0.38
2019-01-04T06:33:32.671Z,0.38
2019-01-04T06:34:42.742Z,0.44
2019-01-04T06:35:52.818Z,0.42
2019-01-04T06:37:02.666Z,0.34
2019-01-04T06:38:12.752Z,0.35
2019-01-04T06:39:22.560Z,0.41
2019-01-04T06:40:32.350Z,0.37
2019-01-04T06:41:42.156Z,0.38
2019-01-04T06:42:52.226Z,0.41
2019-01-04T06:44:03.066Z,0.38
2019-01-04T06:45:13.201Z,0.39
2019-01-04T06:46:23.260Z,0.35
2019-01-04T06:47:32.803Z,0.37
2019-01-04T06:48:42.854Z,0.5
2019-01-04T06:49:52.690Z,0.53
2019-01-04T06:51:02.511Z,0.5
2019-01-04T06:52:12.323Z,0.52
2019-01-04T06:53:22.396Z,0.56
2019-01-04T06:54:32.457Z,0.5
2019-01-04T06:55:42.541Z,0.57
2019-01-04T06:56:52.597Z,0.61
2019-01-04T06:58:02.763Z,0.61
2019-01-04T06:59:12.831Z,0.63
2019-01-04T07:00:22.662Z,0.74
2019-01-04T07:01:32.719Z,0.75
2019-01-04T07:02:42.782Z,0.85
2019-01-04T07:03:52.617Z,0.86
2019-01-04T07:05:02.668Z,0.9
2019-01-04T07:06:12.470Z,0.94
2019-01-04T07:07:22.543Z,0.97
2019-01-04T07:08:32.341Z,1.02
2019-01-04T07:09:42.404Z,1
2019-01-04T07:10:52.523Z,1.14
2019-01-04T07:12:02.327Z,1.21
2019-01-04T07:13:12.379Z,1.21
2019-01-04T07:14:22.179Z,1.38
2019-01-04T07:15:32.241Z,1.33
2019-01-04T07:16:41.825Z,1.46
2019-01-04T07:17:52.132Z,1.5
2019-01-04T07:19:02.204Z,1.56
2019-01-04T07:20:12.007Z,1.69
2019-01-04T07:21:22.065Z,1.69
2019-01-04T07:22:31.867Z,1.71
2019-01-04T07:23:41.954Z,1.75
2019-01-04T07:24:51.994Z,1.82
2019-01-04T07:26:01.830Z,1.9
2019-01-04T07:27:11.620Z,1.87
2019-01-04T07:28:21.168Z,2.02
2019-01-04T07:29:31.218Z,2.05
2019-01-04T07:30:41.028Z,2.12
2019-01-04T07:31:51.078Z,2.13
2019-01-04T07:33:01.179Z,2.2
2019-01-04T07:34:11.246Z,2.29
2019-01-04T07:35:21.336Z,2.24
2019-01-04T07:36:30.882Z,2.3
2019-01-04T07:37:40.934Z,2.38
2019-01-04T07:38:50.988Z,2.33
2019-01-04T07:40:01.037Z,2.41
2019-01-04T07:41:11.106Z,2.41
2019-01-04T07:42:21.165Z,2.47
2019-01-04T07:43:31.195Z,2.51
2019-01-04T07:44:41.272Z,2.47
2019-01-04T07:45:51.337Z,2.51
2019-01-04T07:47:01.420Z,2.58
2019-01-04T07:48:11.490Z,2.63
2019-01-04T07:49:21.557Z,2.66
2019-01-04T07:50:31.351Z,2.7
2019-01-04T07:51:41.191Z,2.8
2019-01-04T07:52:51.263Z,2.81
2019-01-04T07:54:01.308Z,2.93
2019-01-04T07:55:11.377Z,2.9
2019-01-04T07:56:21.440Z,2.96
2019-01-04T07:57:31.509Z,3.01
2019-01-04T07:58:41.591Z,3.03
2019-01-04T07:59:51.391Z,3.13
2019-01-04T08:01:01.195Z,3.19
2019-01-04T08:02:11.263Z,3.21
2019-01-04T08:03:21.359Z,3.2
2019-01-04T08:04:31.425Z,3.3
2019-01-04T08:05:40.985Z,3.39
2019-01-04T08:06:51.019Z,3.37
2019-01-04T08:08:00.836Z,3.32
2019-01-04T08:09:10.992Z,3.29
2019-01-04T08:10:21.042Z,3.34
2019-01-04T08:11:31.118Z,3.3
2019-01-04T08:12:40.679Z,3.4
2019-01-04T08:13:50.496Z,3.53
2019-01-04T08:15:00.540Z,3.54
2019-01-04T08:16:10.619Z,3.64
2019-01-04T08:17:20.674Z,3.72
2019-01-04T08:18:30.741Z,3.66
2019-01-04T08:19:40.797Z,3.75
2019-01-04T08:20:50.853Z,3.79
2019-01-04T08:22:00.908Z,3.92
2019-01-04T08:23:10.979Z,4.11
2019-01-04T08:24:21.074Z,4.12
2019-01-04T08:25:31.129Z,4.14
2019-01-04T08:26:40.996Z,4.22
2019-01-04T08:27:50.541Z,4.46
2019-01-04T08:29:00.596Z,4.51
2019-01-04T08:30:10.670Z,4.33
2019-01-04T08:31:20.491Z,4.36
2019-01-04T08:32:30.677Z,4.48
2019-01-04T08:33:40.771Z,4.51
2019-01-04T08:34:50.826Z,4.51
2019-01-04T08:36:02.414Z,4.47
2019-01-04T08:37:12.252Z,4.5
2019-01-04T08:38:22.381Z,4.51
2019-01-04T08:39:32.445Z,4.51
2019-01-04T08:40:42.512Z,4.47
2019-01-04T08:41:52.309Z,4.42
2019-01-04T08:43:02.380Z,4.33
2019-01-04T08:44:12.490Z,4.38
2019-01-04T08:45:22.556Z,4.42
2019-01-04T08:46:32.637Z,4.42
2019-01-04T08:47:42.701Z,4.44
2019-01-04T08:48:52.796Z,4.44
2019-01-04T08:50:02.914Z,4.5
2019-01-04T08:51:12.983Z,4.54
2019-01-04T08:52:23.041Z,4.39
2019-01-04T08:53:33.115Z,4.44
2019-01-04T08:54:43.195Z,4.44
2019-01-04T08:55:53.271Z,4.42
2019-01-04T08:57:04.725Z,4.46
2019-01-04T08:58:14.785Z,4.5
2019-01-04T08:59:24.850Z,4.5
2019-01-04T09:00:34.932Z,4.47
2019-01-04T09:01:44.744Z,4.51
2019-01-04T09:02:55.075Z,4.5
2019-01-04T09:04:05.164Z,4.51
2019-01-04T09:05:15.221Z,4.53
2019-01-04T09:06:25.029Z,4.46
2019-01-04T09:07:35.095Z,4.5
2019-01-04T09:08:45.155Z,4.44
2019-01-04T09:09:55.255Z,4.46
2019-01-04T09:11:05.314Z,4.35
2019-01-04T09:12:15.369Z,4.32
2019-01-04T09:13:25.441Z,4.33
2019-01-04T09:14:35.524Z,4.21
2019-01-04T09:15:45.329Z,4.3
2019-01-04T09:16:55.391Z,4.18
2019-01-04T09:18:05.497Z,4.33
2019-01-04T09:19:15.559Z,4.24
2019-01-04T09:20:25.641Z,4.35
2019-01-04T09:21:35.712Z,4.15
2019-01-04T09:22:45.809Z,4.3
2019-01-04T09:23:55.880Z,4.21
2019-01-04T09:25:05.955Z,4.28
2019-01-04T09:26:16.062Z,4.15
2019-01-04T09:27:26.139Z,4.17
2019-01-04T09:28:36.219Z,4.32
2019-01-04T09:29:46.299Z,4.39
2019-01-04T09:30:56.105Z,4.47
2019-01-04T09:32:06.210Z,4.46
2019-01-04T09:33:16.028Z,4.53
2019-01-04T09:34:26.095Z,4.64
2019-01-04T09:35:35.895Z,4.69
2019-01-04T09:36:45.957Z,4.69
2019-01-04T09:37:56.062Z,4.65
2019-01-04T09:39:08.274Z,4.71
2019-01-04T09:40:18.312Z,4.57
2019-01-04T09:41:28.370Z,4.68
2019-01-04T09:42:38.485Z,4.69
2019-01-04T09:43:48.561Z,4.65
2019-01-04T09:44:58.382Z,4.74
2019-01-04T09:46:08.553Z,4.83
2019-01-04T09:47:18.622Z,4.91
2019-01-04T09:48:28.696Z,4.94
2019-01-04T09:49:38.775Z,4.95
2019-01-04T09:50:48.882Z,5
2019-01-04T09:51:58.941Z,5.02
2019-01-04T09:53:09.003Z,5.09
2019-01-04T09:54:19.051Z,5.2
2019-01-04T09:55:29.154Z,5.34
2019-01-04T09:56:39.243Z,5.34
2019-01-04T09:57:49.314Z,5.42
2019-01-04T09:58:59.404Z,5.49
2019-01-04T10:00:10.217Z,5.51
2019-01-04T10:01:20.630Z,5.57
2019-01-04T10:02:30.478Z,5.62
2019-01-04T10:03:40.293Z,5.67
2019-01-04T10:04:50.373Z,5.64
2019-01-04T10:06:00.480Z,5.75
2019-01-04T10:07:10.531Z,5.77
2019-01-04T10:08:20.391Z,5.77
2019-01-04T10:09:30.478Z,5.82
2019-01-04T10:10:40.530Z,5.95
2019-01-04T10:11:50.576Z,6
2019-01-04T10:13:00.658Z,5.99
2019-01-04T10:14:10.475Z,5.92
2019-01-04T10:15:20.614Z,5.89
2019-01-04T10:16:30.714Z,5.75
2019-01-04T10:17:40.810Z,5.8
2019-01-04T10:18:50.882Z,5.78
2019-01-04T10:20:02.533Z,5.8
2019-01-04T10:21:12.616Z,5.72
2019-01-04T10:22:22.674Z,5.82
2019-01-04T10:23:32.745Z,5.78
2019-01-04T10:24:42.790Z,5.87
2019-01-04T10:25:52.627Z,5.89
2019-01-04T10:27:02.427Z,5.88
2019-01-04T10:28:12.252Z,5.82
2019-01-04T10:29:22.307Z,5.73
2019-01-04T10:30:32.404Z,5.73
2019-01-04T10:31:42.471Z,5.69
2019-01-04T10:32:52.357Z,5.72
2019-01-04T10:34:02.447Z,5.64
2019-01-04T10:35:15.564Z,5.67
2019-01-04T10:36:25.646Z,5.7
2019-01-04T10:37:35.730Z,5.62
2019-01-04T10:38:45.295Z,5.63
2019-01-04T10:39:55.098Z,5.6
2019-01-04T10:41:05.174Z,5.66
2019-01-04T10:42:15.002Z,5.64
2019-01-04T10:43:25.072Z,5.66
2019-01-04T10:44:35.202Z,5.57
2019-01-04T10:45:45.267Z,5.57
2019-01-04T10:46:55.092Z,5.6
2019-01-04T10:48:05.166Z,5.63
2019-01-04T10:49:15.255Z,5.57
2019-01-04T10:50:25.302Z,5.52
2019-01-04T10:51:35.399Z,5.72
2019-01-04T10:52:45.463Z,5.7
2019-01-04T10:53:55.553Z,5.72
2019-01-04T10:55:07.481Z,5.72
2019-01-04T10:56:17.618Z,5.69
2019-01-04T10:57:27.695Z,5.64
2019-01-04T10:58:37.764Z,5.67
2019-01-04T10:59:47.853Z,5.62
2019-01-04T11:00:57.977Z,5.72
2019-01-04T11:02:07.298Z,5.8
2019-01-04T11:03:17.357Z,5.82
2019-01-04T11:04:27.458Z,5.72
2019-01-04T11:05:37.512Z,5.66
2019-01-04T11:06:47.571Z,5.78
2019-01-04T11:07:57.632Z,5.67
2019-01-04T11:09:07.192Z,5.59
2019-01-04T11:10:16.999Z,5.72
2019-01-04T11:11:27.114Z,5.63
2019-01-04T11:12:37.199Z,5.64
2019-01-04T11:13:46.807Z,5.73
2019-01-04T11:14:56.902Z,5.8
2019-01-04T11:16:07.010Z,5.78
2019-01-04T11:17:17.077Z,5.81
2019-01-04T11:18:27.180Z,5.82
2019-01-04T11:19:37.300Z,5.7
2019-01-04T11:20:47.373Z,5.67
2019-01-04T11:21:57.435Z,5.64
2019-01-04T11:23:07.618Z,5.67
2019-01-04T11:24:17.418Z,5.66
2019-01-04T11:25:27.277Z,5.7
2019-01-04T11:26:37.108Z,5.7
2019-01-04T11:27:47.197Z,5.66
2019-01-04T11:28:57.267Z,5.72
2019-01-04T11:30:07.351Z,5.77
2019-01-04T11:31:17.178Z,5.75
2019-01-04T11:32:27.261Z,5.89
2019-01-04T11:33:37.354Z,5.95
2019-01-04T11:34:48.358Z,5.88
2019-01-04T11:35:58.482Z,6.06
2019-01-04T11:37:08.570Z,6.09
2019-01-04T11:38:18.403Z,6.1
2019-01-04T11:39:28.527Z,5.95
2019-01-04T11:40:38.622Z,6.05
2019-01-04T11:41:48.458Z,5.88
2019-01-04T11:42:58.547Z,5.88
2019-01-04T11:44:08.622Z,5.91
2019-01-04T11:45:18.400Z,5.92
2019-01-04T11:46:28.467Z,5.84
2019-01-04T11:47:38.303Z,5.81
2019-01-04T11:48:48.122Z,5.78
2019-01-04T11:49:58.199Z,5.8
2019-01-04T11:51:08.979Z,5.73
2019-01-04T11:52:19.051Z,5.77
2019-01-04T11:53:28.873Z,5.7
2019-01-04T11:54:39.000Z,5.67
2019-01-04T11:55:49.060Z,5.66
2019-01-04T11:56:59.151Z,5.52
2019-01-04T11:58:09.225Z,5.55
2019-01-04T11:59:19.332Z,5.52
2019-01-04T12:00:29.402Z,5.51
2019-01-04T12:01:39.463Z,5.48
2019-01-04T12:02:49.007Z,5.36
2019-01-04T12:03:59.075Z,5.41
2019-01-04T12:05:09.953Z,5.39
2019-01-04T12:06:19.770Z,5.37
2019-01-04T12:07:29.846Z,5.41
2019-01-04T12:08:39.909Z,5.37
2019-01-04T12:09:50.050Z,5.39
2019-01-04T12:10:59.841Z,5.37
2019-01-04T12:12:09.650Z,5.34
2019-01-04T12:13:19.707Z,5.18
2019-01-04T12:14:29.538Z,5.09
2019-01-04T12:15:39.604Z,5.1
2019-01-04T12:16:49.671Z,5.09
2019-01-04T12:17:59.732Z,5.03
2019-01-04T12:19:09.897Z,5.03
2019-01-04T12:20:19.972Z,4.98
2019-01-04T12:21:30.079Z,5.03
2019-01-04T12:22:39.634Z,5.05
2019-01-04T12:23:49.701Z,5
2019-01-04T12:24:59.550Z,5
2019-01-04T12:26:09.724Z,5.03
2019-01-04T12:27:19.568Z,4.83
2019-01-04T12:28:29.637Z,4.91
2019-01-04T12:29:39.722Z,4.87
2019-01-04T12:30:49.782Z,4.83
2019-01-04T12:31:59.586Z,4.94
2019-01-04T12:33:09.639Z,4.95
2019-01-04T12:34:21.627Z,4.97
2019-01-04T12:35:31.433Z,4.84
2019-01-04T12:36:41.223Z,4.94
2019-01-04T12:37:51.294Z,4.84
2019-01-04T12:39:01.361Z,4.85
2019-01-04T12:40:11.438Z,4.87
2019-01-04T12:41:21.490Z,5
2019-01-04T12:42:31.576Z,5.09
2019-01-04T12:43:47.707Z,5.05
2019-01-04T12:44:57.733Z,5.03
2019-01-04T12:46:07.441Z,5.06
2019-01-04T12:47:17.517Z,5.06
2019-01-04T12:48:28.433Z,5.16
2019-01-04T12:49:38.565Z,5.12
2019-01-04T12:50:48.627Z,5.05
2019-01-04T12:51:58.453Z,5.06
2019-01-04T12:53:08.534Z,5.13
2019-01-04T12:54:18.585Z,5.13
2019-01-04T12:55:28.673Z,5.1
2019-01-04T12:56:38.479Z,5.12
2019-01-04T12:57:48.530Z,5.09
2019-01-04T12:58:58.610Z,5.03
2019-01-04T13:00:08.436Z,4.94
2019-01-04T13:01:18.654Z,4.91
2019-01-04T13:02:28.707Z,4.75
2019-01-04T13:03:38.501Z,4.72
2019-01-04T13:04:48.567Z,4.71
2019-01-04T13:05:58.619Z,4.71
2019-01-04T13:07:08.538Z,4.72
2019-01-04T13:08:18.607Z,4.78
2019-01-04T13:09:28.424Z,4.69
2019-01-04T13:10:38.514Z,4.71
2019-01-04T13:11:48.570Z,4.65
2019-01-04T13:12:58.377Z,4.5
2019-01-04T13:14:08.195Z,4.57
2019-01-04T13:15:17.996Z,4.54
2019-01-04T13:16:28.056Z,4.64
2019-01-04T13:17:38.128Z,4.65
2019-01-04T13:18:48.262Z,4.57
2019-01-04T13:19:58.309Z,4.51
2019-01-04T13:21:08.402Z,4.47
2019-01-04T13:22:18.205Z,4.54
2019-01-04T13:23:28.294Z,4.4
2019-01-04T13:24:38.353Z,4.32
2019-01-04T13:25:48.140Z,4.29
2019-01-04T13:26:58.195Z,4.3
2019-01-04T13:28:08.253Z,4.38
2019-01-04T13:29:18.072Z,4.28
2019-01-04T13:30:28.185Z,4.38
2019-01-04T13:31:38.265Z,4.26
2019-01-04T13:32:47.811Z,4.15
2019-01-04T13:33:57.885Z,4.32
2019-01-04T13:35:07.696Z,4.28
2019-01-04T13:36:17.543Z,4.26
2019-01-04T13:37:27.591Z,4.21
2019-01-04T13:38:37.663Z,4.17
2019-01-04T13:39:47.728Z,4.1
2019-01-04T13:40:57.814Z,4.11
2019-01-04T13:42:08.373Z,4.07
2019-01-04T13:43:18.429Z,4.04
2019-01-04T13:44:27.973Z,4.07
2019-01-04T13:45:37.806Z,3.96
2019-01-04T13:46:48.939Z,3.96
2019-01-04T13:47:58.801Z,3.84
2019-01-04T13:49:08.878Z,3.82
2019-01-04T13:50:18.696Z,3.74
2019-01-04T13:51:28.791Z,3.66
2019-01-04T13:52:38.842Z,3.71
2019-01-04T13:53:48.900Z,3.63
2019-01-04T13:54:58.720Z,3.48
2019-01-04T13:56:08.804Z,3.56
2019-01-04T13:57:18.637Z,3.56
2019-01-04T13:58:28.713Z,3.57
2019-01-04T13:59:38.787Z,3.53
2019-01-04T14:00:48.971Z,3.58
2019-01-04T14:01:59.044Z,3.49
2019-01-04T14:03:09.096Z,3.4
2019-01-04T14:04:19.173Z,3.4
2019-01-04T14:05:29.236Z,3.46
2019-01-04T14:06:39.304Z,3.39
2019-01-04T14:07:49.368Z,3.4
2019-01-04T14:09:01.876Z,3.3
2019-01-04T14:10:11.932Z,3.34
2019-01-04T14:11:22.046Z,3.29
2019-01-04T14:12:32.106Z,3.32
2019-01-04T14:13:42.179Z,3.3
2019-01-04T14:14:52.292Z,3.27
2019-01-04T14:16:02.352Z,3.23
2019-01-04T14:17:12.232Z,3.23
2019-01-04T14:18:22.800Z,3.26
2019-01-04T14:19:32.872Z,3.34
2019-01-04T14:20:42.941Z,3.39
2019-01-04T14:21:52.992Z,3.37
2019-01-04T14:23:02.783Z,3.26
2019-01-04T14:24:12.836Z,3.37
2019-01-04T14:25:22.930Z,3.32
2019-01-04T14:26:32.978Z,3.35
2019-01-04T14:27:42.804Z,3.29
2019-01-04T14:28:52.619Z,3.34
2019-01-04T14:30:02.714Z,3.42
2019-01-04T14:31:12.776Z,3.43
2019-01-04T14:32:22.828Z,3.3
2019-01-04T14:33:32.651Z,3.35
2019-01-04T14:34:42.726Z,3.42
2019-01-04T14:35:52.797Z,3.34
2019-01-04T14:37:02.862Z,3.42
2019-01-04T14:38:12.692Z,3.4
2019-01-04T14:39:22.486Z,3.4
2019-01-04T14:40:33.346Z,3.49
2019-01-04T14:41:43.441Z,3.49
2019-01-04T14:42:53.509Z,3.49
2019-01-04T14:44:03.654Z,3.45
2019-01-04T14:45:13.722Z,3.46
2019-01-04T14:46:23.779Z,3.39
2019-01-04T14:47:33.845Z,3.48
2019-01-04T14:48:43.911Z,3.34
2019-01-04T14:49:53.975Z,3.37
2019-01-04T14:51:04.047Z,3.32
2019-01-04T14:52:14.120Z,3.29
2019-01-04T14:53:23.672Z,3.37
2019-01-04T14:54:33.744Z,3.4
2019-01-04T14:55:43.303Z,3.3
2019-01-04T14:56:53.378Z,3.37
2019-01-04T14:58:03.431Z,3.37
2019-01-04T14:59:13.502Z,3.35
2019-01-04T15:00:23.582Z,3.34
2019-01-04T15:01:33.658Z,3.3
2019-01-04T15:02:43.479Z,3.35
2019-01-04T15:03:53.287Z,3.34
2019-01-04T15:05:03.859Z,3.37
2019-01-04T15:06:14.807Z,3.34
2019-01-04T15:07:24.893Z,3.34
2019-01-04T15:08:34.476Z,3.32
2019-01-04T15:09:44.291Z,3.27
2019-01-04T15:10:54.330Z,3.34
2019-01-04T15:12:04.539Z,3.23
2019-01-04T15:13:13.838Z,3.34
2019-01-04T15:14:23.657Z,3.34
2019-01-04T15:15:33.825Z,3.24
2019-01-04T15:16:43.884Z,3.27
2019-01-04T15:17:53.934Z,3.23
2019-01-04T15:19:03.743Z,3.24
2019-01-04T15:20:13.559Z,3.26
2019-01-04T15:21:23.633Z,3.29
2019-01-04T15:22:33.711Z,3.27
2019-01-04T15:23:43.520Z,3.21
2019-01-04T15:24:53.583Z,3.26
2019-01-04T15:26:03.411Z,3.23
2019-01-04T15:27:13.233Z,3.3
2019-01-04T15:28:23.292Z,3.29
2019-01-04T15:29:33.373Z,3.27
2019-01-04T15:30:43.442Z,3.3
2019-01-04T15:31:53.518Z,3.37
2019-01-04T15:33:03.586Z,3.34
2019-01-04T15:34:13.405Z,3.29
2019-01-04T15:35:23.478Z,3.37
2019-01-04T15:36:33.285Z,3.32
2019-01-04T15:37:43.094Z,3.37
2019-01-04T15:38:53.191Z,3.39
2019-01-04T15:40:03.274Z,3.32
2019-01-04T15:41:13.340Z,3.35
2019-01-04T15:42:23.426Z,3.3
2019-01-04T15:43:33.236Z,3.32
2019-01-04T15:44:43.337Z,3.42
2019-01-04T15:45:53.405Z,3.3
2019-01-04T15:47:03.205Z,3.35
2019-01-04T15:48:13.291Z,3.35
2019-01-04T15:49:23.083Z,3.43
2019-01-04T15:50:33.148Z,3.4
2019-01-04T15:51:43.229Z,3.34
2019-01-04T15:52:53.317Z,3.43
2019-01-04T15:54:03.410Z,3.42
2019-01-04T15:55:13.502Z,3.39
2019-01-04T15:56:23.602Z,3.42
2019-01-04T15:57:33.663Z,3.42
2019-01-04T15:58:43.745Z,3.45
2019-01-04T15:59:53.826Z,3.37
2019-01-04T16:01:03.882Z,3.45
2019-01-04T16:02:13.705Z,3.49
2019-01-04T16:03:23.802Z,3.45
2019-01-04T16:04:33.897Z,3.51
2019-01-04T16:05:43.970Z,3.53
2019-01-04T16:06:54.036Z,3.49